createdAt,value
2019-03-22T00:00:37.151Z,61.17
2019-03-22T00:05:44.801Z,53.63
2019-03-22T00:10:52.604Z,53.23
2019-03-22T00:16:00.443Z,54.07
2019-03-22T00:21:08.102Z,53.70
2019-03-22T00:26:15.740Z,47.70
2019-03-22T00:31:23.353Z,47.50
2019-03-22T00:36:30.960Z,51.57
2019-03-22T00:41:38.633Z,55.80
2019-03-22T00:46:46.264Z,51.10
2019-03-22T00:51:55.022Z,52.57
2019-03-22T00:57:02.643Z,51.30
2019-03-22T01:02:10.296Z,43.90
2019-03-22T01:07:18.054Z,41.83
2019-03-22T01:12:26.092Z,42.43
2019-03-22T01:17:34.309Z,39.40
2019-03-22T01:22:42.454Z,33.77
2019-03-22T01:27:50.309Z,30.90
2019-03-22T01:32:58.923Z,25.40
2019-03-22T01:38:06.889Z,25.73
2019-03-22T01:43:15.163Z,28.97
2019-03-22T01:48:22.909Z,27.67
2019-03-22T01:53:30.619Z,18.07
2019-03-22T01:58:38.465Z,19.97
2019-03-22T02:03:46.166Z,12.93
2019-03-22T02:08:55.165Z,12.60
2019-03-22T02:14:03.158Z,6.83
2019-03-22T02:19:11.317Z,6.67
2019-03-22T02:24:19.628Z,6.13
2019-03-22T02:29:27.521Z,6.35
2019-03-22T02:34:35.420Z,8.70
2019-03-22T02:39:44.076Z,15.60
2019-03-22T02:44:52.197Z,19.67
2019-03-22T02:50:11.742Z,25.23
2019-03-22T02:55:11.985Z,28.27
2019-03-22T03:00:20.059Z,25.43
2019-03-22T03:05:27.947Z,24.67
2019-03-22T03:10:35.950Z,15.50
2019-03-22T03:15:43.700Z,17.83
2019-03-22T03:20:51.326Z,11.73
2019-03-22T03:25:58.915Z,15.50
2019-03-22T03:31:06.713Z,12.73
2019-03-22T03:36:14.454Z,12.00
2019-03-22T03:41:22.073Z,13.77
2019-03-22T03:46:30.318Z,10.73
2019-03-22T03:51:37.915Z,10.27
2019-03-22T03:56:45.631Z,12.50
2019-03-22T04:01:53.268Z,12.67
2019-03-22T04:07:00.962Z,17.37
2019-03-22T04:12:08.621Z,16.00
2019-03-22T04:17:16.342Z,17.17
2019-03-22T04:22:23.983Z,19.50
2019-03-22T04:27:31.717Z,24.77
2019-03-22T04:32:40.137Z,28.20
2019-03-22T04:37:47.779Z,22.53
2019-03-22T04:42:55.740Z,25.17
2019-03-22T04:48:12.177Z,25.03
2019-03-22T04:53:23.790Z,28.17
2019-03-22T04:58:32.471Z,27.17
2019-03-22T05:03:40.513Z,27.30
2019-03-22T05:08:50.044Z,30.13
2019-03-22T05:14:00.695Z,30.37
2019-03-22T05:19:10.695Z,32.10
2019-03-22T05:24:20.071Z,34.53
2019-03-22T05:29:31.149Z,33.57
2019-03-22T05:34:38.977Z,35.90
2019-03-22T05:39:46.727Z,42.37
2019-03-22T05:44:55.785Z,36.05
2019-03-22T05:50:03.455Z,37.30
2019-03-22T05:55:13.265Z,41.97
2019-03-22T06:00:21.049Z,35.60
2019-03-22T06:05:29.491Z,39.43
2019-03-22T06:10:38.256Z,38.53
2019-03-22T06:15:46.006Z,34.53
2019-03-22T06:20:54.749Z,35.33
2019-03-22T06:26:02.593Z,33.57
2019-03-22T06:31:11.836Z,33.35
2019-03-22T06:36:19.462Z,33.80
2019-03-22T06:41:27.313Z,33.13
2019-03-22T06:46:35.040Z,30.57
2019-03-22T06:51:43.392Z,31.50
2019-03-22T06:56:51.077Z,27.70
2019-03-22T07:01:58.827Z,112.20
2019-03-22T07:07:06.590Z,41.90
2019-03-22T07:12:14.435Z,31.90
2019-03-22T07:17:22.061Z,25.43
2019-03-22T07:22:29.721Z,28.73
2019-03-22T07:27:40.419Z,26.80
2019-03-22T07:32:48.169Z,28.87
2019-03-22T07:37:55.792Z,22.87
2019-03-22T07:43:04.197Z,18.93
2019-03-22T07:48:12.989Z,17.77
2019-03-22T07:53:21.248Z,18.33
2019-03-22T07:58:29.450Z,14.70
2019-03-22T08:03:37.340Z,18.10
2019-03-22T08:08:45.283Z,19.43
2019-03-22T08:13:53.128Z,19.20
2019-03-22T08:19:00.939Z,14.13
2019-03-22T08:24:08.668Z,20.10
2019-03-22T08:29:16.456Z,19.10
2019-03-22T08:34:24.081Z,103.55
2019-03-22T08:39:31.795Z,19.40
2019-03-22T08:44:39.431Z,19.00
2019-03-22T08:49:47.268Z,23.50
2019-03-22T08:54:54.933Z,17.70
2019-03-22T09:00:02.565Z,19.97
2019-03-22T09:05:11.066Z,14.97
2019-03-22T09:10:19.766Z,14.93
2019-03-22T09:15:40.260Z,14.37
2019-03-22T09:20:37.414Z,14.23
2019-03-22T09:25:45.036Z,14.90
2019-03-22T09:30:52.737Z,13.03
2019-03-22T09:36:00.536Z,14.87
2019-03-22T09:41:08.314Z,19.93
2019-03-22T09:46:15.961Z,11.38
2019-03-22T09:51:23.671Z,11.70
2019-03-22T09:56:31.316Z,12.17
2019-03-22T10:01:39.600Z,11.03
2019-03-22T10:06:49.336Z,12.63
2019-03-22T10:11:57.813Z,8.57
2019-03-22T10:17:07.040Z,8.97
2019-03-22T10:22:16.452Z,8.93
2019-03-22T10:27:24.407Z,12.98
2019-03-22T10:32:32.843Z,10.87
2019-03-22T10:37:40.611Z,14.13
2019-03-22T10:42:48.320Z,11.73
2019-03-22T10:47:55.968Z,13.70
2019-03-22T10:53:03.633Z,9.10
2019-03-22T10:58:20.712Z,9.70
2019-03-22T11:03:20.668Z,9.83
2019-03-22T11:08:28.402Z,11.03
2019-03-22T11:13:36.041Z,7.40
2019-03-22T11:18:43.812Z,7.20
2019-03-22T11:23:53.583Z,6.23
2019-03-22T11:29:01.227Z,6.60
2019-03-22T11:34:08.781Z,6.17
2019-03-22T11:39:17.030Z,7.50
2019-03-22T11:44:24.646Z,9.57
2019-03-22T11:49:32.275Z,7.27
2019-03-22T11:54:40.185Z,7.37
2019-03-22T11:59:47.972Z,14.70
2019-03-22T12:04:55.709Z,7.77
2019-03-22T12:10:03.388Z,6.97
2019-03-22T12:15:11.379Z,9.27
2019-03-22T12:20:19.580Z,8.65
2019-03-22T12:25:31.241Z,7.80
2019-03-22T12:30:38.850Z,9.57
2019-03-22T12:35:46.487Z,7.13
2019-03-22T12:40:54.077Z,16.97
2019-03-22T12:46:02.040Z,12.67
2019-03-22T12:51:10.022Z,11.57
2019-03-22T12:56:17.742Z,7.80
2019-03-22T13:01:25.763Z,11.00
2019-03-22T13:06:33.618Z,10.05
2019-03-22T13:11:41.538Z,10.43
2019-03-22T13:16:50.703Z,7.85
2019-03-22T13:21:58.512Z,9.03
2019-03-22T13:27:06.389Z,10.25
2019-03-22T13:32:16.154Z,14.00
2019-03-22T13:37:24.102Z,11.03
2019-03-22T13:42:31.741Z,9.68
2019-03-22T13:47:39.556Z,7.17
2019-03-22T13:52:47.201Z,11.68
2019-03-22T13:57:54.713Z,12.85
2019-03-22T14:03:02.971Z,6.67
2019-03-22T14:08:10.851Z,7.25
2019-03-22T14:13:18.976Z,11.50
2019-03-22T14:18:26.576Z,9.95
2019-03-22T14:23:34.294Z,37.05
2019-03-22T14:28:42.033Z,7.85
2019-03-22T14:33:49.683Z,10.98
2019-03-22T14:38:57.316Z,9.10
2019-03-22T14:44:05.126Z,12.47
2019-03-22T14:49:12.896Z,5.90
2019-03-22T14:54:20.517Z,7.00
2019-03-22T14:59:28.273Z,10.40
2019-03-22T15:04:36.002Z,7.47
2019-03-22T15:09:43.661Z,12.37
2019-03-22T15:15:16.578Z,14.25
2019-03-22T15:20:49.083Z,8.35
2019-03-22T15:26:25.917Z,12.18
2019-03-22T15:31:47.037Z,15.10
2019-03-22T15:37:22.592Z,8.38
2019-03-22T15:42:30.438Z,13.95
2019-03-22T15:47:38.167Z,7.57
2019-03-22T15:52:46.924Z,19.17
2019-03-22T15:57:55.303Z,13.47
2019-03-22T16:03:03.061Z,21.30
2019-03-22T16:08:12.146Z,17.23
2019-03-22T16:13:19.973Z,19.67
2019-03-22T16:18:29.785Z,22.07
2019-03-22T16:23:37.515Z,13.63
2019-03-22T16:28:45.208Z,15.13
2019-03-22T16:33:54.780Z,36.33
2019-03-22T16:39:04.769Z,23.30
2019-03-22T16:44:12.514Z,18.73
2019-03-22T16:49:20.185Z,23.93
2019-03-22T16:54:28.095Z,48.00
2019-03-22T16:59:35.705Z,59.93
2019-03-22T17:04:43.397Z,51.30
2019-03-22T17:09:51.125Z,44.60
2019-03-22T17:14:59.257Z,79.30
2019-03-22T17:20:08.347Z,60.47
2019-03-22T17:25:16.561Z,52.47
2019-03-22T17:30:24.689Z,75.15
2019-03-22T17:35:32.670Z,75.57
2019-03-22T17:40:40.774Z,64.17
2019-03-22T17:45:48.516Z,45.03
2019-03-22T17:50:56.184Z,43.80
2019-03-22T17:56:03.962Z,42.70
2019-03-22T18:01:11.792Z,47.38
2019-03-22T18:06:19.576Z,68.33
2019-03-22T18:11:27.747Z,137.23
2019-03-22T18:16:35.630Z,97.37
2019-03-22T18:21:44.106Z,117.43
2019-03-22T18:26:52.141Z,114.23
2019-03-22T18:31:59.853Z,176.57
2019-03-22T18:37:07.465Z,165.57
2019-03-22T18:42:15.076Z,126.78
2019-03-22T18:47:22.983Z,115.93
2019-03-22T18:52:30.755Z,101.80
2019-03-22T18:57:38.446Z,102.93
2019-03-22T19:02:46.199Z,109.73
2019-03-22T19:07:53.832Z,93.70
2019-03-22T19:13:01.458Z,83.40
2019-03-22T19:18:09.479Z,84.50
2019-03-22T19:23:17.115Z,81.17
2019-03-22T19:28:24.946Z,80.80
2019-03-22T19:33:32.793Z,74.57
2019-03-22T19:38:40.471Z,77.33
2019-03-22T19:43:48.212Z,79.23
2019-03-22T19:48:55.960Z,96.87
2019-03-22T19:54:03.854Z,79.30
2019-03-22T19:59:11.902Z,109.07
2019-03-22T20:04:19.685Z,79.10
2019-03-22T20:09:27.658Z,110.03
2019-03-22T20:14:35.596Z,132.63
2019-03-22T20:19:44.589Z,104.07
2019-03-22T20:24:52.777Z,91.70
2019-03-22T20:30:02.331Z,111.73
2019-03-22T20:35:16.174Z,246.77
2019-03-22T20:40:19.972Z,294.80
2019-03-22T20:45:27.614Z,282.77
2019-03-22T20:50:36.226Z,267.18
2019-03-22T20:55:44.179Z,195.83
2019-03-22T21:00:52.956Z,79.40
2019-03-22T21:06:00.768Z,71.17
2019-03-22T21:11:08.538Z,54.93
2019-03-22T21:16:16.272Z,64.03
2019-03-22T21:21:35.712Z,44.60
2019-03-22T21:26:34.061Z,81.90
2019-03-22T21:31:41.747Z,46.87
2019-03-22T21:36:49.523Z,109.27
2019-03-22T21:41:57.323Z,150.13
2019-03-22T21:47:05.064Z,223.70
2019-03-22T21:52:12.608Z,211.43
2019-03-22T21:57:20.262Z,214.72
2019-03-22T22:02:28.189Z,126.63
2019-03-22T22:07:35.784Z,73.77
2019-03-22T22:12:43.416Z,179.07
2019-03-22T22:17:51.375Z,172.87
2019-03-22T22:22:59.251Z,285.63
2019-03-22T22:28:06.875Z,102.80
2019-03-22T22:33:14.611Z,39.27
2019-03-22T22:38:23.199Z,27.27
2019-03-22T22:43:32.848Z,23.10
2019-03-22T22:48:40.709Z,41.73
2019-03-22T22:53:48.411Z,45.33
2019-03-22T22:58:56.162Z,37.47
2019-03-22T23:04:03.859Z,36.83
2019-03-22T23:09:11.599Z,47.73
2019-03-22T23:14:19.254Z,37.27
2019-03-22T23:19:27.631Z,29.00
2019-03-22T23:24:35.584Z,37.57
2019-03-22T23:29:43.223Z,35.97
2019-03-22T23:34:58.973Z,36.00
2019-03-22T23:40:01.227Z,55.40
2019-03-22T23:45:09.353Z,52.00
2019-03-22T23:50:16.974Z,66.70
2019-03-22T23:55:24.627Z,50.90
